sensor_id;sensor_type;location;lat;lon;timestamp;P1;durP1;ratioP1;P2;durP2;ratioP2
25982;SDS011;13773;48.868;10.730;2023-01-31T00:04:00;14.77;;;8.53;;
25982;SDS011;13773;48.868;10.730;2023-01-31T00:06:29;16.67;;;8.90;;
25982;SDS011;13773;48.868;10.730;2023-01-31T00:08:57;11.27;;;8.20;;
25982;SDS011;13773;48.868;10.730;2023-01-31T00:11:24;14.97;;;8.47;;
25982;SDS011;13773;48.868;10.730;2023-01-31T00:13:53;12.63;;;8.33;;
25982;SDS011;13773;48.868;10.730;2023-01-31T00:16:19;12.60;;;8.77;;
25982;SDS011;13773;48.868;10.730;2023-01-31T00:18:46;15.03;;;8.80;;
25982;SDS011;13773;48.868;10.730;2023-01-31T00:23:39;16.23;;;8.33;;
25982;SDS011;13773;48.868;10.730;2023-01-31T00:26:10;14.53;;;8.87;;
25982;SDS011;13773;48.868;10.730;2023-01-31T00:28:57;13.77;;;8.93;;
25982;SDS011;13773;48.868;10.730;2023-01-31T00:31:24;17.23;;;9.03;;
25982;SDS011;13773;48.868;10.730;2023-01-31T00:33:51;17.87;;;9.30;;
25982;SDS011;13773;48.868;10.730;2023-01-31T00:36:20;14.70;;;9.90;;
25982;SDS011;13773;48.868;10.730;2023-01-31T00:38:48;12.43;;;9.27;;
25982;SDS011;13773;48.868;10.730;2023-01-31T00:41:16;13.50;;;9.30;;
25982;SDS011;13773;48.868;10.730;2023-01-31T00:43:44;16.33;;;9.00;;
25982;SDS011;13773;48.868;10.730;2023-01-31T00:46:10;16.40;;;8.30;;
25982;SDS011;13773;48.868;10.730;2023-01-31T00:48:37;30.63;;;10.90;;
25982;SDS011;13773;48.868;10.730;2023-01-31T00:51:02;16.43;;;8.63;;
25982;SDS011;13773;48.868;10.730;2023-01-31T00:53:29;17.13;;;9.17;;
25982;SDS011;13773;48.868;10.730;2023-01-31T00:56:03;15.63;;;8.97;;
25982;SDS011;13773;48.868;10.730;2023-01-31T00:58:31;17.13;;;8.27;;
25982;SDS011;13773;48.868;10.730;2023-01-31T01:01:07;15.83;;;9.40;;
25982;SDS011;13773;48.868;10.730;2023-01-31T01:03:37;13.57;;;8.13;;
25982;SDS011;13773;48.868;10.730;2023-01-31T01:06:04;15.43;;;8.57;;
25982;SDS011;13773;48.868;10.730;2023-01-31T01:08:31;18.37;;;9.27;;
25982;SDS011;13773;48.868;10.730;2023-01-31T01:14:00;14.00;;;8.10;;
25982;SDS011;13773;48.868;10.730;2023-01-31T01:16:29;16.43;;;9.20;;
25982;SDS011;13773;48.868;10.730;2023-01-31T01:19:00;14.13;;;8.97;;
25982;SDS011;13773;48.868;10.730;2023-01-31T01:21:28;17.43;;;9.13;;
25982;SDS011;13773;48.868;10.730;2023-01-31T01:23:56;16.83;;;9.23;;
25982;SDS011;13773;48.868;10.730;2023-01-31T01:26:30;16.07;;;9.57;;
25982;SDS011;13773;48.868;10.730;2023-01-31T01:28:58;17.03;;;9.00;;
25982;SDS011;13773;48.868;10.730;2023-01-31T01:31:25;14.87;;;9.17;;
25982;SDS011;13773;48.868;10.730;2023-01-31T01:33:55;15.50;;;9.23;;
25982;SDS011;13773;48.868;10.730;2023-01-31T01:36:24;16.17;;;9.70;;
25982;SDS011;13773;48.868;10.730;2023-01-31T01:38:52;17.73;;;10.30;;
25982;SDS011;13773;48.868;10.730;2023-01-31T01:41:19;17.03;;;10.33;;
25982;SDS011;13773;48.868;10.730;2023-01-31T01:43:49;17.50;;;9.73;;
25982;SDS011;13773;48.868;10.730;2023-01-31T01:48:59;12.77;;;8.47;;
25982;SDS011;13773;48.868;10.730;2023-01-31T01:51:35;13.60;;;9.23;;
25982;SDS011;13773;48.868;10.730;2023-01-31T01:54:03;14.80;;;9.80;;
25982;SDS011;13773;48.868;10.730;2023-01-31T01:56:32;18.43;;;10.00;;
25982;SDS011;13773;48.868;10.730;2023-01-31T01:59:07;18.43;;;9.90;;
25982;SDS011;13773;48.868;10.730;2023-01-31T02:01:49;16.50;;;9.73;;
25982;SDS011;13773;48.868;10.730;2023-01-31T02:04:18;15.03;;;9.50;;
25982;SDS011;13773;48.868;10.730;2023-01-31T02:06:47;17.57;;;9.23;;
25982;SDS011;13773;48.868;10.730;2023-01-31T02:12:06;19.10;;;9.40;;
25982;SDS011;13773;48.868;10.730;2023-01-31T02:14:35;18.27;;;10.07;;
25982;SDS011;13773;48.868;10.730;2023-01-31T02:17:01;16.57;;;9.73;;
25982;SDS011;13773;48.868;10.730;2023-01-31T02:20:04;20.10;;;10.47;;
25982;SDS011;13773;48.868;10.730;2023-01-31T02:22:27;24.13;;;10.30;;
25982;SDS011;13773;48.868;10.730;2023-01-31T02:33:01;13.23;;;9.37;;
25982;SDS011;13773;48.868;10.730;2023-01-31T02:35:41;15.27;;;9.10;;
25982;SDS011;13773;48.868;10.730;2023-01-31T02:41:26;14.23;;;9.10;;
25982;SDS011;13773;48.868;10.730;2023-01-31T02:44:00;17.67;;;9.63;;
25982;SDS011;13773;48.868;10.730;2023-01-31T02:49:37;16.90;;;8.83;;
25982;SDS011;13773;48.868;10.730;2023-01-31T02:52:38;16.30;;;9.77;;
25982;SDS011;13773;48.868;10.730;2023-01-31T02:55:50;18.27;;;9.50;;
25982;SDS011;13773;48.868;10.730;2023-01-31T02:58:47;16.33;;;10.27;;
25982;SDS011;13773;48.868;10.730;2023-01-31T03:01:23;19.70;;;9.10;;
25982;SDS011;13773;48.868;10.730;2023-01-31T03:04:01;15.83;;;9.40;;
25982;SDS011;13773;48.868;10.730;2023-01-31T03:09:05;17.93;;;9.23;;
25982;SDS011;13773;48.868;10.730;2023-01-31T03:11:39;16.37;;;8.77;;
25982;SDS011;13773;48.868;10.730;2023-01-31T03:16:44;15.60;;;9.33;;
25982;SDS011;13773;48.868;10.730;2023-01-31T03:19:39;18.50;;;9.10;;
25982;SDS011;13773;48.868;10.730;2023-01-31T03:22:55;23.20;;;10.57;;
25982;SDS011;13773;48.868;10.730;2023-01-31T03:25:27;14.70;;;8.23;;
25982;SDS011;13773;48.868;10.730;2023-01-31T03:27:59;16.23;;;8.63;;
25982;SDS011;13773;48.868;10.730;2023-01-31T03:30:38;14.97;;;8.87;;
25982;SDS011;13773;48.868;10.730;2023-01-31T03:33:22;17.67;;;9.37;;
25982;SDS011;13773;48.868;10.730;2023-01-31T03:35:55;17.70;;;8.97;;
25982;SDS011;13773;48.868;10.730;2023-01-31T03:38:31;14.60;;;8.80;;
25982;SDS011;13773;48.868;10.730;2023-01-31T03:41:10;15.60;;;8.03;;
25982;SDS011;13773;48.868;10.730;2023-01-31T03:43:49;18.77;;;8.57;;
25982;SDS011;13773;48.868;10.730;2023-01-31T03:46:29;15.27;;;8.53;;
25982;SDS011;13773;48.868;10.730;2023-01-31T03:49:18;14.23;;;7.90;;
25982;SDS011;13773;48.868;10.730;2023-01-31T03:51:50;13.77;;;7.70;;
25982;SDS011;13773;48.868;10.730;2023-01-31T03:54:25;17.27;;;7.97;;
25982;SDS011;13773;48.868;10.730;2023-01-31T03:56:58;17.90;;;8.73;;
25982;SDS011;13773;48.868;10.730;2023-01-31T03:59:44;15.93;;;7.37;;
25982;SDS011;13773;48.868;10.730;2023-01-31T04:02:17;15.40;;;7.23;;
25982;SDS011;13773;48.868;10.730;2023-01-31T04:04:53;12.40;;;7.20;;
25982;SDS011;13773;48.868;10.730;2023-01-31T04:07:24;13.20;;;7.33;;
25982;SDS011;13773;48.868;10.730;2023-01-31T04:09:49;13.97;;;7.27;;
25982;SDS011;13773;48.868;10.730;2023-01-31T04:12:15;11.93;;;8.30;;
25982;SDS011;13773;48.868;10.730;2023-01-31T04:14:41;16.30;;;7.67;;
25982;SDS011;13773;48.868;10.730;2023-01-31T04:17:08;11.77;;;7.57;;
25982;SDS011;13773;48.868;10.730;2023-01-31T04:19:33;13.00;;;7.23;;
25982;SDS011;13773;48.868;10.730;2023-01-31T04:21:59;17.93;;;8.13;;
25982;SDS011;13773;48.868;10.730;2023-01-31T04:24:25;13.43;;;7.80;;
25982;SDS011;13773;48.868;10.730;2023-01-31T04:26:50;15.70;;;8.47;;
25982;SDS011;13773;48.868;10.730;2023-01-31T04:29:16;14.20;;;8.00;;
25982;SDS011;13773;48.868;10.730;2023-01-31T04:31:42;14.47;;;7.87;;
25982;SDS011;13773;48.868;10.730;2023-01-31T04:34:07;20.57;;;8.63;;
25982;SDS011;13773;48.868;10.730;2023-01-31T04:36:33;13.23;;;7.77;;
25982;SDS011;13773;48.868;10.730;2023-01-31T04:38:59;14.00;;;7.77;;
25982;SDS011;13773;48.868;10.730;2023-01-31T04:41:25;15.90;;;8.30;;
25982;SDS011;13773;48.868;10.730;2023-01-31T04:43:51;16.27;;;8.23;;
25982;SDS011;13773;48.868;10.730;2023-01-31T04:46:17;16.00;;;7.83;;
25982;SDS011;13773;48.868;10.730;2023-01-31T04:48:43;13.47;;;8.07;;
25982;SDS011;13773;48.868;10.730;2023-01-31T04:51:09;17.83;;;8.43;;
25982;SDS011;13773;48.868;10.730;2023-01-31T04:53:34;16.70;;;8.07;;
25982;SDS011;13773;48.868;10.730;2023-01-31T04:56:01;15.70;;;7.33;;
25982;SDS011;13773;48.868;10.730;2023-01-31T04:58:27;13.77;;;8.10;;
25982;SDS011;13773;48.868;10.730;2023-01-31T05:00:53;18.23;;;8.60;;
25982;SDS011;13773;48.868;10.730;2023-01-31T05:03:19;16.10;;;7.93;;
25982;SDS011;13773;48.868;10.730;2023-01-31T05:05:47;16.20;;;7.90;;
25982;SDS011;13773;48.868;10.730;2023-01-31T05:08:13;16.03;;;8.53;;
25982;SDS011;13773;48.868;10.730;2023-01-31T05:10:39;15.50;;;8.03;;
25982;SDS011;13773;48.868;10.730;2023-01-31T05:13:06;14.30;;;7.57;;
25982;SDS011;13773;48.868;10.730;2023-01-31T05:15:33;18.17;;;8.73;;
25982;SDS011;13773;48.868;10.730;2023-01-31T05:17:59;16.70;;;8.40;;
25982;SDS011;13773;48.868;10.730;2023-01-31T05:20:28;15.00;;;8.17;;
25982;SDS011;13773;48.868;10.730;2023-01-31T05:22:56;18.03;;;8.37;;
25982;SDS011;13773;48.868;10.730;2023-01-31T05:25:23;15.17;;;7.77;;
25982;SDS011;13773;48.868;10.730;2023-01-31T05:27:49;12.53;;;7.37;;
25982;SDS011;13773;48.868;10.730;2023-01-31T05:30:15;15.63;;;7.67;;
25982;SDS011;13773;48.868;10.730;2023-01-31T05:32:41;19.37;;;8.50;;
25982;SDS011;13773;48.868;10.730;2023-01-31T05:35:09;18.67;;;8.30;;
25982;SDS011;13773;48.868;10.730;2023-01-31T05:37:36;21.17;;;8.83;;
25982;SDS011;13773;48.868;10.730;2023-01-31T05:40:02;12.63;;;7.80;;
25982;SDS011;13773;48.868;10.730;2023-01-31T05:42:28;15.47;;;7.97;;
25982;SDS011;13773;48.868;10.730;2023-01-31T05:44:54;14.67;;;7.53;;
25982;SDS011;13773;48.868;10.730;2023-01-31T05:47:19;18.17;;;8.60;;
25982;SDS011;13773;48.868;10.730;2023-01-31T05:49:47;16.43;;;8.43;;
25982;SDS011;13773;48.868;10.730;2023-01-31T05:52:13;18.00;;;8.13;;
25982;SDS011;13773;48.868;10.730;2023-01-31T05:54:38;14.13;;;8.40;;
25982;SDS011;13773;48.868;10.730;2023-01-31T05:57:04;15.40;;;7.70;;
25982;SDS011;13773;48.868;10.730;2023-01-31T05:59:30;16.33;;;8.17;;
25982;SDS011;13773;48.868;10.730;2023-01-31T06:01:57;15.33;;;7.50;;
25982;SDS011;13773;48.868;10.730;2023-01-31T06:04:23;17.73;;;7.50;;
25982;SDS011;13773;48.868;10.730;2023-01-31T06:06:48;17.37;;;8.27;;
25982;SDS011;13773;48.868;10.730;2023-01-31T06:09:14;14.47;;;8.00;;
25982;SDS011;13773;48.868;10.730;2023-01-31T06:11:40;16.30;;;8.83;;
25982;SDS011;13773;48.868;10.730;2023-01-31T06:14:06;18.87;;;8.10;;
25982;SDS011;13773;48.868;10.730;2023-01-31T06:16:33;19.27;;;8.57;;
25982;SDS011;13773;48.868;10.730;2023-01-31T06:18:58;20.30;;;9.23;;
25982;SDS011;13773;48.868;10.730;2023-01-31T06:21:24;19.17;;;9.47;;
25982;SDS011;13773;48.868;10.730;2023-01-31T06:23:50;17.97;;;8.87;;
25982;SDS011;13773;48.868;10.730;2023-01-31T06:26:15;19.70;;;8.47;;
25982;SDS011;13773;48.868;10.730;2023-01-31T06:28:41;20.20;;;9.17;;
25982;SDS011;13773;48.868;10.730;2023-01-31T06:31:10;12.77;;;8.77;;
25982;SDS011;13773;48.868;10.730;2023-01-31T06:33:36;19.40;;;9.40;;
25982;SDS011;13773;48.868;10.730;2023-01-31T06:36:02;18.27;;;8.53;;
25982;SDS011;13773;48.868;10.730;2023-01-31T06:38:28;18.57;;;8.70;;
25982;SDS011;13773;48.868;10.730;2023-01-31T06:40:54;17.67;;;8.90;;
25982;SDS011;13773;48.868;10.730;2023-01-31T06:43:20;19.27;;;8.97;;
25982;SDS011;13773;48.868;10.730;2023-01-31T06:45:46;17.57;;;9.13;;
25982;SDS011;13773;48.868;10.730;2023-01-31T06:48:13;17.80;;;8.13;;
25982;SDS011;13773;48.868;10.730;2023-01-31T06:50:39;23.13;;;11.30;;
25982;SDS011;13773;48.868;10.730;2023-01-31T06:53:05;19.67;;;8.97;;
25982;SDS011;13773;48.868;10.730;2023-01-31T06:55:31;19.93;;;9.50;;
25982;SDS011;13773;48.868;10.730;2023-01-31T06:57:56;18.73;;;8.93;;
25982;SDS011;13773;48.868;10.730;2023-01-31T07:00:22;19.47;;;9.80;;
25982;SDS011;13773;48.868;10.730;2023-01-31T07:02:49;15.77;;;9.20;;
25982;SDS011;13773;48.868;10.730;2023-01-31T07:05:16;23.33;;;10.53;;
25982;SDS011;13773;48.868;10.730;2023-01-31T07:07:43;15.43;;;8.57;;
25982;SDS011;13773;48.868;10.730;2023-01-31T07:10:08;17.03;;;8.77;;
25982;SDS011;13773;48.868;10.730;2023-01-31T07:12:34;13.07;;;8.53;;
25982;SDS011;13773;48.868;10.730;2023-01-31T07:15:00;20.97;;;9.37;;
25982;SDS011;13773;48.868;10.730;2023-01-31T07:17:26;16.13;;;8.43;;
25982;SDS011;13773;48.868;10.730;2023-01-31T07:19:52;16.60;;;8.40;;
25982;SDS011;13773;48.868;10.730;2023-01-31T07:22:17;22.40;;;9.03;;
25982;SDS011;13773;48.868;10.730;2023-01-31T07:24:43;17.40;;;8.53;;
25982;SDS011;13773;48.868;10.730;2023-01-31T07:27:11;14.17;;;7.63;;
25982;SDS011;13773;48.868;10.730;2023-01-31T07:29:38;16.90;;;7.73;;
25982;SDS011;13773;48.868;10.730;2023-01-31T07:32:03;14.47;;;7.33;;
25982;SDS011;13773;48.868;10.730;2023-01-31T07:34:29;16.93;;;8.00;;
25982;SDS011;13773;48.868;10.730;2023-01-31T07:36:55;18.43;;;8.03;;
25982;SDS011;13773;48.868;10.730;2023-01-31T07:39:21;16.58;;;8.93;;
25982;SDS011;13773;48.868;10.730;2023-01-31T07:41:47;16.47;;;7.13;;
25982;SDS011;13773;48.868;10.730;2023-01-31T07:44:15;12.23;;;6.90;;
25982;SDS011;13773;48.868;10.730;2023-01-31T07:46:40;18.30;;;6.67;;
25982;SDS011;13773;48.868;10.730;2023-01-31T07:49:08;13.57;;;6.00;;
25982;SDS011;13773;48.868;10.730;2023-01-31T07:51:34;12.60;;;6.40;;
25982;SDS011;13773;48.868;10.730;2023-01-31T07:54:00;15.67;;;7.40;;
25982;SDS011;13773;48.868;10.730;2023-01-31T07:56:27;19.50;;;6.67;;
25982;SDS011;13773;48.868;10.730;2023-01-31T07:58:53;12.97;;;6.73;;
25982;SDS011;13773;48.868;10.730;2023-01-31T08:01:22;12.07;;;6.60;;
25982;SDS011;13773;48.868;10.730;2023-01-31T08:04:09;14.70;;;7.00;;
25982;SDS011;13773;48.868;10.730;2023-01-31T08:06:37;12.77;;;6.90;;
25982;SDS011;13773;48.868;10.730;2023-01-31T08:09:04;17.53;;;7.17;;
25982;SDS011;13773;48.868;10.730;2023-01-31T08:11:30;14.67;;;7.73;;
25982;SDS011;13773;48.868;10.730;2023-01-31T08:13:56;15.90;;;7.37;;
25982;SDS011;13773;48.868;10.730;2023-01-31T08:16:21;14.63;;;6.80;;
25982;SDS011;13773;48.868;10.730;2023-01-31T08:18:48;12.90;;;7.07;;
25982;SDS011;13773;48.868;10.730;2023-01-31T08:21:15;14.63;;;7.00;;
25982;SDS011;13773;48.868;10.730;2023-01-31T08:23:41;13.83;;;6.90;;
25982;SDS011;13773;48.868;10.730;2023-01-31T08:26:10;19.03;;;7.33;;
25982;SDS011;13773;48.868;10.730;2023-01-31T08:28:45;18.87;;;6.63;;
25982;SDS011;13773;48.868;10.730;2023-01-31T08:31:13;16.67;;;6.23;;
25982;SDS011;13773;48.868;10.730;2023-01-31T08:33:43;17.90;;;6.33;;
25982;SDS011;13773;48.868;10.730;2023-01-31T08:36:10;12.47;;;6.20;;
25982;SDS011;13773;48.868;10.730;2023-01-31T08:38:43;13.20;;;7.17;;
25982;SDS011;13773;48.868;10.730;2023-01-31T08:41:10;13.07;;;6.80;;
25982;SDS011;13773;48.868;10.730;2023-01-31T08:43:36;8.73;;;5.83;;
25982;SDS011;13773;48.868;10.730;2023-01-31T08:46:04;11.30;;;5.40;;
25982;SDS011;13773;48.868;10.730;2023-01-31T08:48:37;12.00;;;5.67;;
25982;SDS011;13773;48.868;10.730;2023-01-31T08:51:10;13.80;;;5.67;;
25982;SDS011;13773;48.868;10.730;2023-01-31T08:53:37;13.47;;;6.27;;
25982;SDS011;13773;48.868;10.730;2023-01-31T08:56:05;13.00;;;5.67;;
25982;SDS011;13773;48.868;10.730;2023-01-31T08:58:32;10.33;;;5.43;;
25982;SDS011;13773;48.868;10.730;2023-01-31T09:01:01;12.07;;;5.57;;
25982;SDS011;13773;48.868;10.730;2023-01-31T09:03:27;10.70;;;5.53;;
25982;SDS011;13773;48.868;10.730;2023-01-31T09:05:53;13.67;;;6.10;;
25982;SDS011;13773;48.868;10.730;2023-01-31T09:08:19;10.27;;;5.63;;
25982;SDS011;13773;48.868;10.730;2023-01-31T09:10:51;13.90;;;5.90;;
25982;SDS011;13773;48.868;10.730;2023-01-31T09:13:18;12.60;;;6.00;;
25982;SDS011;13773;48.868;10.730;2023-01-31T09:15:44;12.73;;;5.73;;
25982;SDS011;13773;48.868;10.730;2023-01-31T09:18:10;11.07;;;5.70;;
25982;SDS011;13773;48.868;10.730;2023-01-31T09:20:35;13.37;;;6.03;;
25982;SDS011;13773;48.868;10.730;2023-01-31T09:23:01;15.13;;;5.77;;
25982;SDS011;13773;48.868;10.730;2023-01-31T09:25:27;13.40;;;5.27;;
25982;SDS011;13773;48.868;10.730;2023-01-31T09:27:53;9.93;;;5.67;;
25982;SDS011;13773;48.868;10.730;2023-01-31T09:30:19;14.10;;;6.00;;
25982;SDS011;13773;48.868;10.730;2023-01-31T09:32:45;13.40;;;7.17;;
25982;SDS011;13773;48.868;10.730;2023-01-31T09:35:11;10.97;;;6.77;;
25982;SDS011;13773;48.868;10.730;2023-01-31T09:37:37;19.33;;;6.87;;
25982;SDS011;13773;48.868;10.730;2023-01-31T09:40:04;12.73;;;6.00;;
25982;SDS011;13773;48.868;10.730;2023-01-31T09:42:31;12.43;;;5.53;;
25982;SDS011;13773;48.868;10.730;2023-01-31T09:47:49;10.77;;;5.57;;
25982;SDS011;13773;48.868;10.730;2023-01-31T09:53:14;10.70;;;6.60;;
25982;SDS011;13773;48.868;10.730;2023-01-31T09:56:08;10.97;;;5.53;;
25982;SDS011;13773;48.868;10.730;2023-01-31T09:59:01;11.40;;;5.33;;
25982;SDS011;13773;48.868;10.730;2023-01-31T10:01:31;11.77;;;4.60;;
25982;SDS011;13773;48.868;10.730;2023-01-31T10:07:09;14.60;;;4.93;;
25982;SDS011;13773;48.868;10.730;2023-01-31T10:09:45;9.70;;;4.43;;
25982;SDS011;13773;48.868;10.730;2023-01-31T10:12:19;11.43;;;4.60;;
25982;SDS011;13773;48.868;10.730;2023-01-31T10:14:56;17.97;;;6.63;;
25982;SDS011;13773;48.868;10.730;2023-01-31T10:17:37;14.00;;;5.70;;
25982;SDS011;13773;48.868;10.730;2023-01-31T10:20:09;12.17;;;5.40;;
25982;SDS011;13773;48.868;10.730;2023-01-31T10:22:45;11.90;;;4.93;;
25982;SDS011;13773;48.868;10.730;2023-01-31T10:25:24;10.43;;;5.20;;
25982;SDS011;13773;48.868;10.730;2023-01-31T10:27:59;8.93;;;4.40;;
25982;SDS011;13773;48.868;10.730;2023-01-31T10:30:40;7.20;;;4.20;;
25982;SDS011;13773;48.868;10.730;2023-01-31T10:33:20;10.20;;;4.47;;
25982;SDS011;13773;48.868;10.730;2023-01-31T10:35:54;12.77;;;4.80;;
25982;SDS011;13773;48.868;10.730;2023-01-31T10:38:31;6.67;;;4.50;;
25982;SDS011;13773;48.868;10.730;2023-01-31T10:41:16;9.17;;;4.40;;
25982;SDS011;13773;48.868;10.730;2023-01-31T10:43:48;11.53;;;4.67;;
25982;SDS011;13773;48.868;10.730;2023-01-31T10:46:22;14.17;;;5.43;;
25982;SDS011;13773;48.868;10.730;2023-01-31T10:48:48;9.87;;;5.37;;
25982;SDS011;13773;48.868;10.730;2023-01-31T10:56:43;12.50;;;4.97;;
25982;SDS011;13773;48.868;10.730;2023-01-31T10:59:32;8.47;;;4.27;;
25982;SDS011;13773;48.868;10.730;2023-01-31T11:02:08;11.40;;;4.90;;
25982;SDS011;13773;48.868;10.730;2023-01-31T11:04:45;10.67;;;4.63;;
25982;SDS011;13773;48.868;10.730;2023-01-31T11:07:12;12.20;;;4.10;;
25982;SDS011;13773;48.868;10.730;2023-01-31T11:09:40;8.07;;;3.93;;
25982;SDS011;13773;48.868;10.730;2023-01-31T11:12:09;10.60;;;4.67;;
25982;SDS011;13773;48.868;10.730;2023-01-31T11:14:35;11.80;;;4.57;;
25982;SDS011;13773;48.868;10.730;2023-01-31T11:17:05;10.23;;;4.60;;
25982;SDS011;13773;48.868;10.730;2023-01-31T11:22:20;9.23;;;4.30;;
25982;SDS011;13773;48.868;10.730;2023-01-31T11:24:49;11.20;;;5.43;;
25982;SDS011;13773;48.868;10.730;2023-01-31T11:27:29;14.70;;;4.70;;
25982;SDS011;13773;48.868;10.730;2023-01-31T11:30:04;11.23;;;4.33;;
25982;SDS011;13773;48.868;10.730;2023-01-31T11:32:41;12.73;;;5.63;;
25982;SDS011;13773;48.868;10.730;2023-01-31T11:37:52;12.43;;;4.63;;
25982;SDS011;13773;48.868;10.730;2023-01-31T11:40:30;11.37;;;4.90;;
25982;SDS011;13773;48.868;10.730;2023-01-31T11:43:05;13.07;;;4.10;;
25982;SDS011;13773;48.868;10.730;2023-01-31T11:45:53;10.00;;;3.47;;
25982;SDS011;13773;48.868;10.730;2023-01-31T11:48:26;8.97;;;3.43;;
25982;SDS011;13773;48.868;10.730;2023-01-31T11:51:03;11.83;;;4.13;;
25982;SDS011;13773;48.868;10.730;2023-01-31T11:53:36;10.17;;;3.70;;
25982;SDS011;13773;48.868;10.730;2023-01-31T11:56:12;13.83;;;4.67;;
25982;SDS011;13773;48.868;10.730;2023-01-31T11:58:40;13.70;;;4.27;;
25982;SDS011;13773;48.868;10.730;2023-01-31T12:03:36;13.37;;;4.70;;
25982;SDS011;13773;48.868;10.730;2023-01-31T12:06:03;8.07;;;3.67;;
25982;SDS011;13773;48.868;10.730;2023-01-31T12:08:34;11.77;;;4.37;;
25982;SDS011;13773;48.868;10.730;2023-01-31T12:14:01;9.13;;;3.57;;
25982;SDS011;13773;48.868;10.730;2023-01-31T12:16:27;11.57;;;4.83;;
25982;SDS011;13773;48.868;10.730;2023-01-31T12:32:39;15.10;;;6.70;;
25982;SDS011;13773;48.868;10.730;2023-01-31T12:57:05;10.53;;;3.20;;
25982;SDS011;13773;48.868;10.730;2023-01-31T13:00:30;7.83;;;3.53;;
25982;SDS011;13773;48.868;10.730;2023-01-31T13:02:36;10.50;;;3.77;;
25982;SDS011;13773;48.868;10.730;2023-01-31T13:08:01;4.90;;;2.30;;
25982;SDS011;13773;48.868;10.730;2023-01-31T13:13:27;9.53;;;3.10;;
25982;SDS011;13773;48.868;10.730;2023-01-31T13:15:58;9.20;;;3.07;;
25982;SDS011;13773;48.868;10.730;2023-01-31T13:18:46;8.87;;;3.63;;
25982;SDS011;13773;48.868;10.730;2023-01-31T13:21:19;11.00;;;3.40;;
25982;SDS011;13773;48.868;10.730;2023-01-31T13:23:52;7.20;;;3.33;;
25982;SDS011;13773;48.868;10.730;2023-01-31T13:26:30;7.23;;;3.77;;
25982;SDS011;13773;48.868;10.730;2023-01-31T13:29:00;7.87;;;3.53;;
25982;SDS011;13773;48.868;10.730;2023-01-31T13:31:39;9.83;;;3.50;;
25982;SDS011;13773;48.868;10.730;2023-01-31T13:34:16;6.77;;;3.60;;
25982;SDS011;13773;48.868;10.730;2023-01-31T13:36:59;9.67;;;4.13;;
25982;SDS011;13773;48.868;10.730;2023-01-31T13:39:32;12.13;;;3.87;;
25982;SDS011;13773;48.868;10.730;2023-01-31T13:42:03;8.20;;;3.70;;
25982;SDS011;13773;48.868;10.730;2023-01-31T13:44:29;6.50;;;2.80;;
25982;SDS011;13773;48.868;10.730;2023-01-31T13:47:05;12.00;;;5.40;;
25982;SDS011;13773;48.868;10.730;2023-01-31T13:52:26;11.73;;;3.17;;
25982;SDS011;13773;48.868;10.730;2023-01-31T13:55:24;7.00;;;4.00;;
25982;SDS011;13773;48.868;10.730;2023-01-31T13:57:56;8.83;;;3.50;;
25982;SDS011;13773;48.868;10.730;2023-01-31T14:03:18;5.67;;;3.03;;
25982;SDS011;13773;48.868;10.730;2023-01-31T14:08:35;6.60;;;3.80;;
25982;SDS011;13773;48.868;10.730;2023-01-31T14:13:44;8.80;;;4.23;;
25982;SDS011;13773;48.868;10.730;2023-01-31T14:16:32;9.93;;;3.57;;
25982;SDS011;13773;48.868;10.730;2023-01-31T14:18:58;7.87;;;4.00;;
25982;SDS011;13773;48.868;10.730;2023-01-31T14:29:14;10.63;;;5.47;;
25982;SDS011;13773;48.868;10.730;2023-01-31T14:31:42;11.97;;;4.97;;
25982;SDS011;13773;48.868;10.730;2023-01-31T14:34:20;12.70;;;5.67;;
25982;SDS011;13773;48.868;10.730;2023-01-31T14:42:21;11.70;;;3.80;;
25982;SDS011;13773;48.868;10.730;2023-01-31T14:58:36;12.20;;;4.53;;
25982;SDS011;13773;48.868;10.730;2023-01-31T15:01:07;8.17;;;3.90;;
25982;SDS011;13773;48.868;10.730;2023-01-31T15:06:36;6.50;;;4.40;;
25982;SDS011;13773;48.868;10.730;2023-01-31T15:11:44;12.47;;;6.07;;
25982;SDS011;13773;48.868;10.730;2023-01-31T15:16:46;7.17;;;3.70;;
25982;SDS011;13773;48.868;10.730;2023-01-31T15:19:50;7.20;;;3.33;;
25982;SDS011;13773;48.868;10.730;2023-01-31T15:22:19;6.83;;;3.33;;
25982;SDS011;13773;48.868;10.730;2023-01-31T15:24:47;8.00;;;3.37;;
25982;SDS011;13773;48.868;10.730;2023-01-31T15:27:21;11.27;;;5.23;;
25982;SDS011;13773;48.868;10.730;2023-01-31T15:32:42;6.87;;;3.30;;
25982;SDS011;13773;48.868;10.730;2023-01-31T15:35:49;9.23;;;5.63;;
25982;SDS011;13773;48.868;10.730;2023-01-31T15:43:54;9.33;;;3.87;;
25982;SDS011;13773;48.868;10.730;2023-01-31T15:46:34;8.07;;;3.33;;
25982;SDS011;13773;48.868;10.730;2023-01-31T15:49:00;6.73;;;3.60;;
25982;SDS011;13773;48.868;10.730;2023-01-31T15:51:26;4.97;;;3.00;;
25982;SDS011;13773;48.868;10.730;2023-01-31T15:54:02;11.13;;;7.30;;
25982;SDS011;13773;48.868;10.730;2023-01-31T15:56:30;8.40;;;3.83;;
25982;SDS011;13773;48.868;10.730;2023-01-31T15:58:57;10.87;;;4.50;;
25982;SDS011;13773;48.868;10.730;2023-01-31T16:01:23;12.57;;;5.67;;
25982;SDS011;13773;48.868;10.730;2023-01-31T16:03:55;11.40;;;5.90;;
25982;SDS011;13773;48.868;10.730;2023-01-31T16:06:30;10.00;;;4.57;;
25982;SDS011;13773;48.868;10.730;2023-01-31T16:08:59;6.93;;;4.00;;
25982;SDS011;13773;48.868;10.730;2023-01-31T16:11:27;8.57;;;4.80;;
25982;SDS011;13773;48.868;10.730;2023-01-31T16:13:57;8.67;;;5.03;;
25982;SDS011;13773;48.868;10.730;2023-01-31T16:16:25;8.47;;;4.30;;
25982;SDS011;13773;48.868;10.730;2023-01-31T16:18:53;12.77;;;4.30;;
25982;SDS011;13773;48.868;10.730;2023-01-31T16:21:42;5.47;;;3.67;;
25982;SDS011;13773;48.868;10.730;2023-01-31T16:24:19;6.90;;;3.37;;
25982;SDS011;13773;48.868;10.730;2023-01-31T16:26:56;7.40;;;3.90;;
25982;SDS011;13773;48.868;10.730;2023-01-31T16:29:45;8.67;;;3.47;;
25982;SDS011;13773;48.868;10.730;2023-01-31T16:32:24;11.90;;;6.50;;
25982;SDS011;13773;48.868;10.730;2023-01-31T16:37:31;7.97;;;4.23;;
25982;SDS011;13773;48.868;10.730;2023-01-31T16:42:41;5.67;;;3.53;;
25982;SDS011;13773;48.868;10.730;2023-01-31T16:47:51;7.07;;;4.03;;
25982;SDS011;13773;48.868;10.730;2023-01-31T16:52:50;11.83;;;5.67;;
25982;SDS011;13773;48.868;10.730;2023-01-31T16:55:19;7.20;;;4.57;;
25982;SDS011;13773;48.868;10.730;2023-01-31T16:57:48;9.00;;;4.20;;
25982;SDS011;13773;48.868;10.730;2023-01-31T17:02:56;10.53;;;5.50;;
25982;SDS011;13773;48.868;10.730;2023-01-31T17:07:54;6.53;;;3.77;;
25982;SDS011;13773;48.868;10.730;2023-01-31T17:10:26;8.47;;;4.23;;
25982;SDS011;13773;48.868;10.730;2023-01-31T17:13:08;8.20;;;4.50;;
25982;SDS011;13773;48.868;10.730;2023-01-31T17:15:41;6.00;;;3.97;;
25982;SDS011;13773;48.868;10.730;2023-01-31T17:18:09;7.93;;;5.00;;
25982;SDS011;13773;48.868;10.730;2023-01-31T17:20:36;8.13;;;4.40;;
25982;SDS011;13773;48.868;10.730;2023-01-31T17:23:09;8.30;;;4.20;;
25982;SDS011;13773;48.868;10.730;2023-01-31T17:25:35;7.33;;;3.97;;
25982;SDS011;13773;48.868;10.730;2023-01-31T17:28:01;7.07;;;4.07;;
25982;SDS011;13773;48.868;10.730;2023-01-31T17:30:27;5.17;;;3.70;;
25982;SDS011;13773;48.868;10.730;2023-01-31T17:32:55;9.23;;;4.73;;
25982;SDS011;13773;48.868;10.730;2023-01-31T17:38:15;10.47;;;3.87;;